Time,TemperatureF,DewpointF,PressureIn,WindDirection,WindDirectionDegrees,WindSpeedMPH,WindSpeedGustMPH,Humidity,HourlyPrecipIn,Conditions,Clouds,dailyrainin,SoftwareType,DateUTC
2013-11-03 00:06:00,40.1,39.6,29.75,NNW,337,2.7,-999.0,98,-99.99,,,0.00,Acu-Link.com,2013-11-03 04:06:00,
2013-11-03 00:21:00,40.3,39.8,29.75,NNW,337,3.7,-999.0,98,-99.99,,,0.00,Acu-Link.com,2013-11-03 04:21:00,
2013-11-03 00:36:00,40.6,40.1,29.76,NNE,22,4.2,-999.0,98,-99.99,,,0.00,Acu-Link.com,2013-11-03 04:36:00,
2013-11-03 00:52:00,40.6,39.3,29.76,North,0,2.7,-999.0,95,-99.99,,,0.00,Acu-Link.com,2013-11-03 04:52:00,
2013-11-03 01:07:00,40.5,38.6,29.76,NNE,22,3.7,-999.0,93,-99.99,,,0.00,Acu-Link.com,2013-11-03 05:07:00,
2013-11-03 01:23:00,40.3,38.4,29.77,WNW,292,2.7,-999.0,93,-99.99,,,0.00,Acu-Link.com,2013-11-03 05:23:00,
2013-11-03 01:38:00,40.3,38.7,29.78,WNW,292,3.2,-999.0,94,-99.99,,,0.00,Acu-Link.com,2013-11-03 05:38:00,
2013-11-03 01:53:00,39.9,38.6,29.79,WNW,292,3.2,-999.0,95,-99.99,,,0.00,Acu-Link.com,2013-11-03 05:53:00,
2013-11-03 01:08:00,39.7,38.4,29.79,ESE,112,2.7,-999.0,95,-99.99,,,0.00,Acu-Link.com,2013-11-03 06:08:00,
2013-11-03 01:23:00,39.7,38.1,29.81,NW,315,1.7,-999.0,94,-99.99,,,0.00,Acu-Link.com,2013-11-03 06:23:00,
2013-11-03 01:38:00,39.7,39.2,29.81,WNW,292,2.2,-999.0,98,-99.99,,,0.00,Acu-Link.com,2013-11-03 06:38:00,
2013-11-03 01:53:00,39.6,39.1,29.81,NW,315,1.1,-999.0,98,-99.99,,,0.00,Acu-Link.com,2013-11-03 06:53:00,
2013-11-03 02:09:00,39.4,38.9,29.82,NNW,337,2.7,-999.0,98,-99.99,,,0.00,Acu-Link.com,2013-11-03 07:09:00,
2013-11-03 02:24:00,39.2,38.7,29.82,West,270,4.2,-999.0,98,-99.99,,,0.00,Acu-Link.com,2013-11-03 07:24:00,
2013-11-03 02:39:00,38.8,38.3,29.84,WNW,292,2.2,-999.0,98,-99.99,,,0.00,Acu-Link.com,2013-11-03 07:39:00,
2013-11-03 02:54:00,38.5,38.0,29.83,North,0,3.7,-999.0,98,-99.99,,,0.00,Acu-Link.com,2013-11-03 07:54:00,
2013-11-03 03:09:00,38.3,37.8,29.84,West,270,2.7,-999.0,98,-99.99,,,0.00,Acu-Link.com,2013-11-03 08:09:00,
2013-11-03 03:24:00,37.8,37.3,29.85,NNE,22,3.7,-999.0,98,-99.99,,,0.00,Acu-Link.com,2013-11-03 08:24:00,
2013-11-03 03:39:00,37.8,37.3,29.86,WNW,292,2.7,-999.0,98,-99.99,,,0.00,Acu-Link.com,2013-11-03 08:39:00,
2013-11-03 03:54:00,37.6,37.1,29.86,NW,315,2.7,-999.0,98,-99.99,,,0.00,Acu-Link.com,2013-11-03 08:54:00,
2013-11-03 04:09:00,37.0,36.5,29.88,North,0,2.2,-999.0,98,-99.99,,,0.00,Acu-Link.com,2013-11-03 09:09:00,
2013-11-03 04:25:00,36.9,36.4,29.89,WNW,292,2.2,-999.0,98,-99.99,,,0.00,Acu-Link.com,2013-11-03 09:25:00,
2013-11-03 04:40:00,36.5,36.0,29.91,SSW,202,3.2,-999.0,98,-99.99,,,0.00,Acu-Link.com,2013-11-03 09:40:00,
2013-11-03 04:55:00,36.0,35.5,29.91,NNE,22,3.7,-999.0,98,-99.99,,,0.00,Acu-Link.com,2013-11-03 09:55:00,
2013-11-03 05:10:00,35.8,35.3,29.92,North,0,1.7,-999.0,98,-99.99,,,0.00,Acu-Link.com,2013-11-03 10:10:00,
2013-11-03 05:26:00,35.6,35.1,29.93,WNW,292,2.2,-999.0,98,-99.99,,,0.00,Acu-Link.com,2013-11-03 10:26:00,
2013-11-03 05:41:00,35.8,35.3,29.94,NNE,22,1.7,-999.0,98,-99.99,,,0.00,Acu-Link.com,2013-11-03 10:41:00,
2013-11-03 05:56:00,35.8,35.3,29.96,West,270,1.7,-999.0,98,-99.99,,,0.00,Acu-Link.com,2013-11-03 10:56:00,
2013-11-03 06:11:00,35.6,35.1,29.96,West,270,0.0,-999.0,98,-99.99,,,0.00,Acu-Link.com,2013-11-03 11:11:00,
2013-11-03 06:26:00,35.4,34.9,29.97,ESE,112,0.0,-999.0,98,-99.99,,,0.00,Acu-Link.com,2013-11-03 11:26:00,
2013-11-03 06:41:00,35.4,34.9,29.97,West,270,0.0,-999.0,98,-99.99,,,0.00,Acu-Link.com,2013-11-03 11:41:00,
2013-11-03 06:56:00,35.1,34.1,29.98,NNE,22,1.7,-999.0,96,-99.99,,,0.00,Acu-Link.com,2013-11-03 11:56:00,
2013-11-03 07:11:00,34.7,32.6,30.00,ENE,67,2.7,-999.0,92,-99.99,,,0.00,Acu-Link.com,2013-11-03 12:11:00,
2013-11-03 07:26:00,34.9,33.4,30.01,NW,315,1.7,-999.0,94,-99.99,,,0.00,Acu-Link.com,2013-11-03 12:26:00,
2013-11-03 07:42:00,34.9,31.1,30.02,NNE,22,2.2,-999.0,86,-99.99,,,0.00,Acu-Link.com,2013-11-03 12:42:00,
2013-11-03 07:57:00,34.9,30.3,30.04,North,0,1.7,-999.0,83,-99.99,,,0.00,Acu-Link.com,2013-11-03 12:57:00,
2013-11-03 08:12:00,34.9,28.4,30.04,East,90,1.7,-999.0,77,-99.99,,,0.00,Acu-Link.com,2013-11-03 13:12:00,
2013-11-03 08:27:00,34.9,26.8,30.05,NW,315,2.7,-999.0,72,-99.99,,,0.00,Acu-Link.com,2013-11-03 13:27:00,
2013-11-03 08:42:00,36.3,27.5,30.06,NE,45,0.0,-999.0,70,-99.99,,,0.00,Acu-Link.com,2013-11-03 13:42:00,
2013-11-03 08:58:00,37.6,23.8,30.06,WSW,247,1.1,-999.0,57,-99.99,,,0.00,Acu-Link.com,2013-11-03 13:58:00,
2013-11-03 09:13:00,38.5,23.3,30.07,NNE,22,3.2,-999.0,54,-99.99,,,0.00,Acu-Link.com,2013-11-03 14:13:00,
2013-11-03 09:28:00,38.7,21.7,30.07,West,270,1.1,-999.0,50,-99.99,,,0.00,Acu-Link.com,2013-11-03 14:28:00,
2013-11-03 09:43:00,38.5,20.5,30.08,NNE,22,1.7,-999.0,48,-99.99,,,0.00,Acu-Link.com,2013-11-03 14:43:00,
2013-11-03 09:58:00,38.7,22.1,30.08,NNW,337,2.7,-999.0,51,-99.99,,,0.00,Acu-Link.com,2013-11-03 14:58:00,
2013-11-03 10:14:00,38.5,21.5,30.09,WNW,292,2.2,-999.0,50,-99.99,,,0.00,Acu-Link.com,2013-11-03 15:14:00,
2013-11-03 10:29:00,37.2,21.2,30.09,West,270,2.7,-999.0,52,-99.99,,,0.00,Acu-Link.com,2013-11-03 15:29:00,
2013-11-03 10:44:00,37.0,20.6,30.10,WNW,292,3.2,-999.0,51,-99.99,,,0.00,Acu-Link.com,2013-11-03 15:44:00,
2013-11-03 10:59:00,38.5,21.5,30.10,North,0,0.0,-999.0,50,-99.99,,,0.00,Acu-Link.com,2013-11-03 15:59:00,
2013-11-03 11:14:00,38.8,22.2,30.11,North,0,0.0,-999.0,51,-99.99,,,0.00,Acu-Link.com,2013-11-03 16:14:00,
2013-11-03 11:30:00,39.4,24.2,30.11,NNW,337,0.0,-999.0,54,-99.99,,,0.00,Acu-Link.com,2013-11-03 16:30:00,
2013-11-03 11:45:00,40.3,20.7,30.10,NNE,22,1.1,-999.0,45,-99.99,,,0.00,Acu-Link.com,2013-11-03 16:45:00,
2013-11-03 12:00:00,39.7,22.6,30.10,WNW,292,3.2,-999.0,50,-99.99,,,0.00,Acu-Link.com,2013-11-03 17:00:00,
2013-11-03 12:15:00,40.3,23.2,30.09,NE,45,2.7,-999.0,50,-99.99,,,0.00,Acu-Link.com,2013-11-03 17:15:00,
2013-11-03 12:31:00,39.9,23.3,30.10,NNW,337,1.7,-999.0,51,-99.99,,,0.00,Acu-Link.com,2013-11-03 17:31:00,
2013-11-03 12:46:00,40.1,23.4,30.10,West,270,0.0,-999.0,51,-99.99,,,0.00,Acu-Link.com,2013-11-03 17:46:00,
2013-11-03 13:01:00,40.8,23.6,30.10,East,90,0.0,-999.0,50,-99.99,,,0.00,Acu-Link.com,2013-11-03 18:01:00,
2013-11-03 13:16:00,41.2,23.0,30.11,SSW,202,2.7,-999.0,48,-99.99,,,0.00,Acu-Link.com,2013-11-03 18:16:00,
2013-11-03 13:32:00,40.6,20.9,30.12,NE,45,1.1,-999.0,45,-99.99,,,0.00,Acu-Link.com,2013-11-03 18:32:00,
2013-11-03 13:47:00,40.3,21.2,30.13,West,270,1.1,-999.0,46,-99.99,,,0.00,Acu-Link.com,2013-11-03 18:47:00,
2013-11-03 14:02:00,39.4,20.9,30.13,NW,315,2.7,-999.0,47,-99.99,,,0.00,Acu-Link.com,2013-11-03 19:02:00,
2013-11-03 14:17:00,38.8,21.3,30.14,NNW,337,1.7,-999.0,49,-99.99,,,0.00,Acu-Link.com,2013-11-03 19:17:00,
2013-11-03 14:33:00,38.5,22.0,30.14,NNW,337,2.7,-999.0,51,-99.99,,,0.00,Acu-Link.com,2013-11-03 19:33:00,
2013-11-03 14:48:00,38.1,21.1,30.15,South,180,3.7,-999.0,50,-99.99,,,0.00,Acu-Link.com,2013-11-03 19:48:00,
2013-11-03 15:03:00,37.4,20.9,30.16,NNW,337,1.1,-999.0,51,-99.99,,,0.00,Acu-Link.com,2013-11-03 20:03:00,
2013-11-03 15:18:00,37.0,21.9,30.17,NW,315,1.7,-999.0,54,-99.99,,,0.00,Acu-Link.com,2013-11-03 20:18:00,
2013-11-03 15:33:00,36.5,21.5,30.17,WNW,292,2.2,-999.0,54,-99.99,,,0.00,Acu-Link.com,2013-11-03 20:33:00,
2013-11-03 15:49:00,35.8,22.1,30.17,NNW,337,2.7,-999.0,57,-99.99,,,0.00,Acu-Link.com,2013-11-03 20:49:00,
2013-11-03 16:04:00,35.4,22.1,30.19,NNW,337,1.7,-999.0,58,-99.99,,,0.00,Acu-Link.com,2013-11-03 21:04:00,
2013-11-03 16:19:00,34.9,22.0,30.19,WNW,292,2.2,-999.0,59,-99.99,,,0.00,Acu-Link.com,2013-11-03 21:19:00,
2013-11-03 16:34:00,34.5,21.7,30.21,South,180,3.2,-999.0,59,-99.99,,,0.00,Acu-Link.com,2013-11-03 21:34:00,
2013-11-03 16:49:00,34.0,22.0,30.21,NW,315,0.0,-999.0,61,-99.99,,,0.00,Acu-Link.com,2013-11-03 21:49:00,
2013-11-03 17:05:00,33.6,22.0,30.22,NNW,337,0.0,-999.0,62,-99.99,,,0.00,Acu-Link.com,2013-11-03 22:05:00,
2013-11-03 17:20:00,33.1,21.9,30.24,NNW,337,0.0,-999.0,63,-99.99,,,0.00,Acu-Link.com,2013-11-03 22:20:00,
2013-11-03 17:35:00,32.9,22.4,30.25,WNW,292,0.0,-999.0,65,-99.99,,,0.00,Acu-Link.com,2013-11-03 22:35:00,
2013-11-03 17:50:00,32.5,21.7,30.26,NNE,22,2.2,-999.0,64,-99.99,,,0.00,Acu-Link.com,2013-11-03 22:50:00,
2013-11-03 18:06:00,32.0,21.6,30.27,South,180,0.0,-999.0,65,-99.99,,,0.00,Acu-Link.com,2013-11-03 23:06:00,
2013-11-03 18:21:00,31.1,21.4,30.28,WNW,292,0.0,-999.0,67,-99.99,,,0.00,Acu-Link.com,2013-11-03 23:21:00,
2013-11-03 18:36:00,30.2,21.6,30.29,NNE,22,0.0,-999.0,70,-99.99,,,0.00,Acu-Link.com,2013-11-03 23:36:00,
2013-11-03 18:51:00,29.5,22.3,30.28,WNW,292,0.0,-999.0,74,-99.99,,,0.00,Acu-Link.com,2013-11-03 23:51:00,
2013-11-03 19:07:00,28.8,22.2,30.30,WNW,292,0.0,-999.0,76,-99.99,,,0.00,Acu-Link.com,2013-11-04 00:07:00,
2013-11-03 19:22:00,29.7,21.1,30.30,NE,45,1.7,-999.0,70,-99.99,,,0.00,Acu-Link.com,2013-11-04 00:22:00,
2013-11-03 19:37:00,30.0,21.1,30.31,WNW,292,0.0,-999.0,69,-99.99,,,0.00,Acu-Link.com,2013-11-04 00:37:00,
2013-11-03 19:52:00,30.0,22.1,30.32,NNW,337,1.7,-999.0,72,-99.99,,,0.00,Acu-Link.com,2013-11-04 00:52:00,
2013-11-03 20:07:00,29.7,21.8,30.33,NW,315,0.0,-999.0,72,-99.99,,,0.00,Acu-Link.com,2013-11-04 01:07:00,
2013-11-03 20:23:00,29.3,22.1,30.33,SE,135,0.0,-999.0,74,-99.99,,,0.00,Acu-Link.com,2013-11-04 01:23:00,
2013-11-03 20:38:00,28.9,21.7,30.35,WNW,292,0.0,-999.0,74,-99.99,,,0.00,Acu-Link.com,2013-11-04 01:38:00,
2013-11-03 20:53:00,28.4,21.2,30.35,NW,315,0.0,-999.0,74,-99.99,,,0.00,Acu-Link.com,2013-11-04 01:53:00,
2013-11-03 21:09:00,28.2,20.7,30.35,WNW,292,0.0,-999.0,73,-99.99,,,0.00,Acu-Link.com,2013-11-04 02:09:00,
2013-11-03 21:24:00,28.0,20.2,30.35,WNW,292,0.0,-999.0,72,-99.99,,,0.00,Acu-Link.com,2013-11-04 02:24:00,
2013-11-03 21:39:00,27.9,21.9,30.37,SW,225,0.0,-999.0,78,-99.99,,,0.00,Acu-Link.com,2013-11-04 02:39:00,
2013-11-03 21:54:00,27.5,22.2,30.37,WSW,247,0.0,-999.0,80,-99.99,,,0.00,Acu-Link.com,2013-11-04 02:54:00,
2013-11-03 22:09:00,27.3,22.3,30.37,SW,225,0.0,-999.0,81,-99.99,,,0.00,Acu-Link.com,2013-11-04 03:09:00,
2013-11-03 22:25:00,27.0,22.5,30.38,WSW,247,0.0,-999.0,83,-99.99,,,0.00,Acu-Link.com,2013-11-04 03:25:00,
2013-11-03 22:40:00,26.6,22.4,30.39,NW,315,0.0,-999.0,84,-99.99,,,0.00,Acu-Link.com,2013-11-04 03:40:00,
2013-11-03 22:55:00,26.4,22.0,30.39,NE,45,0.0,-999.0,83,-99.99,,,0.00,Acu-Link.com,2013-11-04 03:55:00,
2013-11-03 23:10:00,25.9,23.1,30.39,SSW,202,0.0,-999.0,89,-99.99,,,0.00,Acu-Link.com,2013-11-04 04:10:00,
2013-11-03 23:25:00,25.7,24.0,30.40,East,90,0.0,-999.0,93,-99.99,,,0.00,Acu-Link.com,2013-11-04 04:25:00,
2013-11-03 23:40:00,25.3,24.3,30.40,NNW,337,0.0,-999.0,96,-99.99,,,0.00,Acu-Link.com,2013-11-04 04:40:00,
2013-11-03 23:56:00,25.0,23.3,30.41,NNE,22,0.0,-999.0,93,-99.99,,,0.00,Acu-Link.com,2013-11-04 04:56:00,